Algona, IA

8:42 AM CST on January 28, 2015 (GMT -0600)
Estherville Municipal | Change Station
CLOSE
Current Station
Airport
Location: Estherville,
Elevation: 1316 ft
Nearby Weather Stations

Elev 1316 ft 43.40 °N, 94.75 °W | Updated 39 minutes ago

Fog
Fog
30 °F
Feels Like 17 °F
N
21
Wind Variable Wind from SSE
Gusts 30 mph

Today
High -- | Low -- °F
--% Chance of Precip.
Yesterday
High -- | Low -- °F
Precip. -- in
7:36 AM 5:23 PM
Waxing Gibbous, 65% visible
Pressure 29.89 in
Visibility 1.8 miles
Clouds Overcast 300 ft
Windchill 17 °F
Dew Point 29 °F
Humidity 96%
Rainfall 0.00 in
Snow Depth Not available.
UV 0 out of 12
Pollen .10 out of 12
Air Quality Not available.
Flu Activity Not available.
SPECI KEST 281403Z AUTO 16018G26KT 1 3/4SM BR OVC003 M01/M02 A2989 RMK AO2 PK WND 16026/1358 VIS 1 1/4V2 1/2 T10111017

More Conditions Fewer Conditions

Pressure 29.89 in
Visibility 1.8 miles
Clouds Overcast 300 ft
Windchill 17 °F
Dew Point 29 °F
Humidity 96%
Rainfall 0.00 in
Snow Depth Not available.
UV 0 out of 12
Pollen .10 out of 12
Air Quality Not available.
Flu Activity Not available.
SPECI KEST 281403Z AUTO 16018G26KT 1 3/4SM BR OVC003 M01/M02 A2989 RMK AO2 PK WND 16026/1358 VIS 1 1/4V2 1/2 T10111017

More Conditions Fewer Conditions

10-Day Weather Forecast

Almanac

Astronomy

Jan. 28, 2015 Rise Set
Actual Time
Civil Twilight
Nautical Twilight
Astronomical Twilight
Moon
Length of Visible Light
Length of Day
Tomorrow will be .
, % of the Moon is Illuminated

Today's Extremes

State Highs State Lows

Community

WunderPhotos

Upload Photos

1,791,160 photos uploaded!

WunderBlogs® & News

Nearby

Air Quality

  Air Quality AQ Index Pollutant
Not available.

Snow Depth

Station Depth Elevation

Earthquake Activity

City Distance Mag. Time & Date
Minimum magnitude displayed is 2.5.

Coastal Water Temperatures

Place Temperature

Nearby Weather Stations